createdAt,value
2023-02-19T00:00:14.844Z,5.50
2023-02-19T00:02:48.003Z,4.80
2023-02-19T00:05:00.569Z,5.00
2023-02-19T00:07:13.367Z,4.70
2023-02-19T00:09:26.022Z,3.80
2023-02-19T00:11:39.365Z,4.60
2023-02-19T00:13:55.390Z,5.00
2023-02-19T00:16:08.735Z,5.40
2023-02-19T00:18:21.358Z,4.30
2023-02-19T00:20:33.875Z,3.80
2023-02-19T00:22:46.403Z,3.50
2023-02-19T00:24:58.956Z,3.30
2023-02-19T00:27:11.551Z,3.90
2023-02-19T00:29:25.018Z,4.80
2023-02-19T00:31:37.821Z,4.40
2023-02-19T00:33:52.927Z,4.50
2023-02-19T00:36:06.225Z,4.70
2023-02-19T00:38:22.472Z,4.50
2023-02-19T00:40:35.042Z,4.80
2023-02-19T00:42:47.573Z,4.10
2023-02-19T00:45:00.115Z,3.90
2023-02-19T00:47:12.815Z,3.40
2023-02-19T00:49:25.338Z,3.20
2023-02-19T00:51:38.432Z,3.70
2023-02-19T00:53:51.290Z,3.40
2023-02-19T00:56:04.155Z,3.60
2023-02-19T00:58:16.697Z,3.50
2023-02-19T01:00:29.360Z,3.90
2023-02-19T01:02:41.988Z,3.80
2023-02-19T01:04:54.563Z,3.70
2023-02-19T01:07:10.128Z,4.00
2023-02-19T01:09:22.773Z,3.60
2023-02-19T01:11:35.594Z,3.70
2023-02-19T01:13:48.313Z,3.70
2023-02-19T01:16:10.873Z,3.50
2023-02-19T01:18:23.433Z,2.70
2023-02-19T01:20:40.726Z,2.70
2023-02-19T01:22:53.731Z,2.20
2023-02-19T01:25:06.486Z,1.90
2023-02-19T01:27:18.997Z,2.60
2023-02-19T01:29:31.621Z,2.30
2023-02-19T01:31:44.215Z,1.80
2023-02-19T01:33:59.793Z,1.80
2023-02-19T01:36:13.394Z,2.00
2023-02-19T01:38:26.053Z,1.80
2023-02-19T01:40:38.635Z,2.10
2023-02-19T01:42:51.409Z,1.90
2023-02-19T01:45:21.034Z,2.00
2023-02-19T01:47:33.800Z,2.20
2023-02-19T01:49:52.622Z,2.70
2023-02-19T01:52:21.314Z,3.00
2023-02-19T01:54:37.022Z,2.50
2023-02-19T01:56:50.051Z,2.40
2023-02-19T01:59:02.757Z,2.80
2023-02-19T02:01:15.335Z,2.60
2023-02-19T02:03:28.735Z,2.60
2023-02-19T02:06:02.195Z,3.10
2023-02-19T02:08:34.940Z,3.80
2023-02-19T02:10:47.532Z,4.60
2023-02-19T02:13:00.098Z,4.10
2023-02-19T02:15:14.750Z,3.00
2023-02-19T02:17:41.157Z,3.20
2023-02-19T02:20:05.613Z,3.20
2023-02-19T02:22:25.730Z,3.00
2023-02-19T02:24:41.011Z,3.20
2023-02-19T02:26:59.568Z,3.30
2023-02-19T02:29:43.039Z,3.00
2023-02-19T02:32:12.848Z,2.80
2023-02-19T02:34:39.658Z,2.70
2023-02-19T02:36:56.192Z,3.30
2023-02-19T02:39:13.023Z,2.50
2023-02-19T02:41:26.069Z,2.20
2023-02-19T02:43:38.665Z,2.20
2023-02-19T02:45:51.591Z,2.00
2023-02-19T02:48:35.303Z,1.80
2023-02-19T02:50:56.371Z,2.30
2023-02-19T02:53:32.915Z,2.10
2023-02-19T02:55:49.544Z,2.20
2023-02-19T02:58:02.792Z,2.30
2023-02-19T03:00:15.595Z,2.00
2023-02-19T03:02:31.341Z,2.30
2023-02-19T03:05:11.456Z,2.20
2023-02-19T03:07:26.505Z,2.10
2023-02-19T03:09:43.120Z,2.00
2023-02-19T03:12:17.496Z,2.00
2023-02-19T03:14:59.935Z,2.00
2023-02-19T03:17:41.722Z,1.90
2023-02-19T03:19:56.533Z,1.90
2023-02-19T03:22:17.597Z,1.90
2023-02-19T03:24:54.099Z,2.00
2023-02-19T03:27:09.373Z,1.80
2023-02-19T03:29:25.770Z,2.00
2023-02-19T03:31:40.472Z,2.20
2023-02-19T03:33:59.569Z,2.00
2023-02-19T03:36:15.654Z,2.30
2023-02-19T03:38:37.331Z,2.10
2023-02-19T03:40:57.828Z,2.40
2023-02-19T03:43:34.679Z,2.20
2023-02-19T03:46:01.927Z,2.50
2023-02-19T03:48:33.187Z,2.70
2023-02-19T03:51:14.940Z,3.20
2023-02-19T03:53:36.636Z,3.70
2023-02-19T03:56:04.881Z,3.80
2023-02-19T03:58:28.227Z,4.00
2023-02-19T04:00:50.380Z,4.30
2023-02-19T04:03:19.370Z,4.70
2023-02-19T04:05:35.546Z,5.10
2023-02-19T04:07:52.148Z,5.30
2023-02-19T04:10:07.526Z,4.70
2023-02-19T04:12:21.347Z,5.20
2023-02-19T04:14:46.165Z,4.50
2023-02-19T04:17:03.140Z,4.70
2023-02-19T04:19:20.936Z,4.50
2023-02-19T04:21:36.075Z,3.90
2023-02-19T04:23:49.728Z,3.90
2023-02-19T04:26:03.932Z,3.70
2023-02-19T04:28:18.300Z,3.40
2023-02-19T04:30:31.050Z,3.20
2023-02-19T04:32:43.716Z,3.00
2023-02-19T04:34:56.188Z,3.00
2023-02-19T04:37:08.872Z,2.70
2023-02-19T04:39:21.732Z,2.70
2023-02-19T04:41:34.277Z,2.60
2023-02-19T04:43:46.806Z,2.60
2023-02-19T04:46:01.625Z,2.80
2023-02-19T04:48:14.878Z,2.70
2023-02-19T04:50:27.496Z,2.60
2023-02-19T04:52:40.018Z,2.80
2023-02-19T04:54:52.553Z,2.80
2023-02-19T04:57:05.110Z,2.50
2023-02-19T04:59:18.052Z,2.90
2023-02-19T05:01:30.642Z,3.00
2023-02-19T05:03:44.362Z,2.80
2023-02-19T05:05:57.014Z,3.20
2023-02-19T05:08:09.627Z,2.90
2023-02-19T05:10:22.256Z,3.20
2023-02-19T05:12:34.829Z,3.00
2023-02-19T05:14:47.367Z,3.40
2023-02-19T05:16:59.907Z,3.20
2023-02-19T05:19:12.611Z,3.00
2023-02-19T05:21:25.190Z,3.10
2023-02-19T05:23:38.470Z,3.10
2023-02-19T05:25:51.048Z,3.30
2023-02-19T05:28:19.304Z,3.10
2023-02-19T05:30:31.908Z,3.50
2023-02-19T05:32:44.479Z,3.00
2023-02-19T05:34:57.013Z,3.20
2023-02-19T05:37:09.576Z,3.20
2023-02-19T05:39:22.099Z,3.20
2023-02-19T05:41:34.822Z,3.20
2023-02-19T05:43:49.061Z,3.30
2023-02-19T05:46:01.688Z,3.30
2023-02-19T05:48:14.340Z,3.30
2023-02-19T05:50:27.455Z,3.60
2023-02-19T05:52:40.134Z,4.00
2023-02-19T05:54:52.615Z,3.70
2023-02-19T05:57:05.193Z,3.20
2023-02-19T05:59:20.908Z,3.10
2023-02-19T06:01:34.046Z,3.10
2023-02-19T06:03:46.868Z,2.70
2023-02-19T06:05:59.413Z,2.60
2023-02-19T06:08:13.783Z,2.40
2023-02-19T06:10:28.216Z,2.80
2023-02-19T06:12:40.848Z,2.30
2023-02-19T06:14:53.559Z,2.50
2023-02-19T06:17:06.083Z,2.10
2023-02-19T06:19:18.661Z,2.40
2023-02-19T06:21:31.662Z,2.40
2023-02-19T06:23:45.409Z,2.20
2023-02-19T06:26:12.324Z,2.10
2023-02-19T06:28:24.907Z,2.20
2023-02-19T06:30:37.422Z,2.10
2023-02-19T06:32:52.383Z,2.30
2023-02-19T06:35:05.415Z,2.00
2023-02-19T06:37:17.981Z,3.60
2023-02-19T06:39:30.585Z,5.00
2023-02-19T06:41:43.214Z,3.00
2023-02-19T06:44:00.200Z,2.20
2023-02-19T06:46:13.140Z,2.30
2023-02-19T06:48:31.081Z,1.70
2023-02-19T06:50:43.639Z,1.60
2023-02-19T06:52:56.269Z,1.60
2023-02-19T06:55:09.103Z,1.60
2023-02-19T06:57:21.737Z,1.30
2023-02-19T06:59:34.311Z,1.40
2023-02-19T07:01:46.835Z,1.40
2023-02-19T07:03:59.709Z,1.40
2023-02-19T07:06:12.305Z,1.60
2023-02-19T07:08:24.994Z,1.70
2023-02-19T07:10:37.557Z,1.70
2023-02-19T07:12:50.170Z,1.70
2023-02-19T07:15:02.720Z,1.50
2023-02-19T07:17:15.271Z,1.40
2023-02-19T07:19:27.797Z,1.60
2023-02-19T07:21:42.357Z,1.40
2023-02-19T07:23:55.000Z,1.20
2023-02-19T07:26:12.656Z,1.30
2023-02-19T07:28:25.829Z,1.50
2023-02-19T07:30:38.529Z,1.40
2023-02-19T07:32:51.054Z,1.40
2023-02-19T07:35:03.712Z,1.60
2023-02-19T07:37:16.293Z,1.50
2023-02-19T07:39:28.872Z,1.40
2023-02-19T07:41:41.634Z,1.30
2023-02-19T07:43:54.420Z,1.10
2023-02-19T07:46:11.669Z,1.60
2023-02-19T07:48:24.302Z,2.50
2023-02-19T07:50:36.986Z,1.60
2023-02-19T07:52:49.748Z,1.20
2023-02-19T07:55:02.290Z,1.00
2023-02-19T07:57:14.926Z,1.00
2023-02-19T07:59:27.454Z,1.00
2023-02-19T08:01:58.744Z,0.80
2023-02-19T08:04:13.376Z,0.80
2023-02-19T08:06:26.009Z,0.70
2023-02-19T08:08:39.658Z,0.90
2023-02-19T08:11:30.672Z,0.80
2023-02-19T08:13:43.166Z,0.90
2023-02-19T08:16:18.272Z,1.00
2023-02-19T08:18:33.044Z,0.90
2023-02-19T08:20:45.839Z,1.10
2023-02-19T08:22:58.391Z,0.90
2023-02-19T08:25:10.939Z,0.90
2023-02-19T08:27:23.480Z,1.10
2023-02-19T08:29:36.009Z,1.00
2023-02-19T08:31:48.636Z,1.00
2023-02-19T08:34:01.334Z,1.40
2023-02-19T08:36:13.936Z,3.30
2023-02-19T08:38:26.493Z,2.40
2023-02-19T08:40:40.385Z,2.80
2023-02-19T08:42:53.446Z,2.30
2023-02-19T08:45:06.225Z,1.30
2023-02-19T08:47:18.769Z,1.70
2023-02-19T08:49:31.252Z,1.70
2023-02-19T08:51:43.749Z,2.20
2023-02-19T08:53:56.307Z,1.60
2023-02-19T08:56:11.991Z,1.60
2023-02-19T08:58:27.888Z,2.20
2023-02-19T09:00:40.450Z,2.10
2023-02-19T09:02:53.098Z,2.30
2023-02-19T09:05:05.858Z,2.10
2023-02-19T09:07:19.284Z,2.20
2023-02-19T09:09:31.809Z,2.50
2023-02-19T09:11:44.369Z,2.70
2023-02-19T09:13:57.552Z,3.20
2023-02-19T09:16:10.697Z,4.80
2023-02-19T09:18:24.479Z,2.90
2023-02-19T09:20:36.989Z,3.20
2023-02-19T09:22:49.599Z,3.10
2023-02-19T09:25:02.401Z,2.80
2023-02-19T09:27:19.683Z,3.00
2023-02-19T09:29:32.179Z,3.70
2023-02-19T09:31:46.043Z,3.30
2023-02-19T09:33:58.674Z,5.10
2023-02-19T09:36:11.850Z,4.40
2023-02-19T09:38:24.368Z,4.40
2023-02-19T09:40:38.697Z,5.20
2023-02-19T09:42:51.819Z,2.20
2023-02-19T09:45:05.549Z,2.00
2023-02-19T09:47:30.178Z,2.20
2023-02-19T09:49:49.971Z,2.00
2023-02-19T09:52:10.120Z,1.80
2023-02-19T09:54:26.168Z,2.00
2023-02-19T09:56:38.901Z,2.10
2023-02-19T09:58:55.616Z,2.10
2023-02-19T10:01:11.808Z,4.50
2023-02-19T10:03:33.691Z,2.80
2023-02-19T10:05:46.521Z,4.00
2023-02-19T10:07:59.180Z,2.10
2023-02-19T10:10:14.569Z,2.20
2023-02-19T10:12:29.737Z,2.30
2023-02-19T10:14:46.890Z,2.60
2023-02-19T10:17:01.737Z,2.00
2023-02-19T10:19:16.251Z,1.80
2023-02-19T10:21:28.824Z,2.40
2023-02-19T10:23:42.358Z,1.80
2023-02-19T10:25:59.085Z,2.80
2023-02-19T10:28:17.143Z,22.30
2023-02-19T10:30:33.189Z,9.10
2023-02-19T10:33:02.496Z,2.60
2023-02-19T10:35:16.190Z,1.90
2023-02-19T10:37:29.455Z,2.30
2023-02-19T10:39:48.597Z,2.00
2023-02-19T10:42:03.847Z,4.00
2023-02-19T10:44:22.549Z,3.60
2023-02-19T10:46:45.721Z,2.20
2023-02-19T10:49:00.461Z,2.50
2023-02-19T10:51:21.749Z,2.20
2023-02-19T10:53:48.050Z,1.80
2023-02-19T10:56:24.492Z,1.70
2023-02-19T10:58:42.242Z,1.90
2023-02-19T11:01:16.758Z,3.00
2023-02-19T11:03:29.250Z,1.80
2023-02-19T11:06:02.369Z,1.80
2023-02-19T11:08:22.849Z,2.30
2023-02-19T11:10:42.291Z,2.60
2023-02-19T11:12:58.933Z,2.80
2023-02-19T11:15:25.037Z,1.90
2023-02-19T11:17:37.784Z,3.20
2023-02-19T11:19:54.102Z,5.00
2023-02-19T11:22:33.589Z,3.60
2023-02-19T11:24:56.693Z,2.50
2023-02-19T11:27:19.187Z,2.00
2023-02-19T11:29:34.942Z,3.90
2023-02-19T11:31:47.694Z,22.60
2023-02-19T11:34:30.005Z,5.50
2023-02-19T11:36:42.712Z,2.40
2023-02-19T11:38:57.080Z,2.40
2023-02-19T11:41:30.115Z,5.70
2023-02-19T11:44:04.250Z,3.10
2023-02-19T11:46:29.441Z,2.40
2023-02-19T11:48:50.704Z,4.40
2023-02-19T11:51:15.803Z,5.00
2023-02-19T11:53:32.153Z,5.20
2023-02-19T11:56:07.232Z,2.60
2023-02-19T11:58:59.512Z,1.50
2023-02-19T12:01:31.851Z,1.50
2023-02-19T12:04:22.635Z,2.00
2023-02-19T12:07:17.968Z,1.80
2023-02-19T12:09:50.520Z,1.70
2023-02-19T12:12:30.737Z,1.70
2023-02-19T12:14:58.314Z,1.90
2023-02-19T12:17:32.113Z,2.30
2023-02-19T12:20:15.704Z,1.80
2023-02-19T12:22:33.752Z,1.30
2023-02-19T12:25:10.238Z,2.20
2023-02-19T12:28:20.010Z,1.70
2023-02-19T12:30:56.624Z,3.90
2023-02-19T12:33:24.056Z,2.50
2023-02-19T12:35:46.364Z,2.40
2023-02-19T12:38:23.400Z,2.20
2023-02-19T12:41:06.137Z,2.10
2023-02-19T12:43:21.618Z,1.90
2023-02-19T12:46:03.042Z,2.20
2023-02-19T12:48:28.180Z,2.10
2023-02-19T12:50:42.899Z,1.90
2023-02-19T12:53:26.965Z,1.60
2023-02-19T12:55:44.348Z,3.40
2023-02-19T12:58:01.308Z,2.20
2023-02-19T13:00:31.327Z,2.00
2023-02-19T13:02:59.366Z,2.20
2023-02-19T13:05:46.566Z,1.90
2023-02-19T13:08:07.524Z,2.20
2023-02-19T13:10:50.665Z,5.10
2023-02-19T13:13:14.439Z,3.00
2023-02-19T13:15:44.144Z,1.60
2023-02-19T13:18:01.550Z,2.90
2023-02-19T13:20:18.182Z,3.10
2023-02-19T13:23:03.216Z,2.10
2023-02-19T13:25:18.570Z,2.10
2023-02-19T13:28:05.048Z,2.50
2023-02-19T13:30:40.899Z,2.40
2023-02-19T13:33:16.003Z,3.00
2023-02-19T13:35:47.247Z,2.60
2023-02-19T13:38:02.488Z,2.30
2023-02-19T13:40:30.255Z,3.10
2023-02-19T13:42:53.937Z,2.30
2023-02-19T13:45:07.026Z,2.70
2023-02-19T13:47:46.770Z,4.60
2023-02-19T13:50:06.873Z,2.20
2023-02-19T13:52:28.582Z,2.30
2023-02-19T13:54:41.158Z,2.70
2023-02-19T13:57:29.047Z,4.60
2023-02-19T13:59:42.516Z,4.10
2023-02-19T14:02:16.557Z,3.80
2023-02-19T14:04:31.970Z,3.10
2023-02-19T14:07:03.025Z,3.90
2023-02-19T14:09:43.810Z,2.80
2023-02-19T14:12:16.030Z,4.80
2023-02-19T14:14:36.485Z,2.50
2023-02-19T14:16:52.503Z,12.10
2023-02-19T14:19:33.956Z,6.60
2023-02-19T14:21:46.512Z,3.00
2023-02-19T14:24:00.127Z,3.20
2023-02-19T14:26:13.072Z,4.20
2023-02-19T14:28:35.384Z,6.90
2023-02-19T14:30:55.616Z,13.10
2023-02-19T14:33:11.411Z,7.00
2023-02-19T14:35:28.144Z,3.10
2023-02-19T14:37:41.057Z,2.00
2023-02-19T14:39:56.637Z,1.90
2023-02-19T14:42:17.772Z,5.40
2023-02-19T14:44:39.780Z,2.70
2023-02-19T14:47:00.572Z,3.10
2023-02-19T14:49:19.844Z,2.90
2023-02-19T14:51:41.427Z,3.20
2023-02-19T14:53:55.817Z,2.90
2023-02-19T14:56:20.865Z,2.90
2023-02-19T14:58:34.316Z,3.80
2023-02-19T15:00:47.142Z,4.60
2023-02-19T15:03:00.039Z,9.50
2023-02-19T15:05:24.429Z,3.20
2023-02-19T15:07:37.116Z,3.70
2023-02-19T15:09:57.063Z,4.20
2023-02-19T15:12:26.417Z,3.70
2023-02-19T15:14:40.190Z,3.00
2023-02-19T15:16:58.903Z,2.80
2023-02-19T15:19:16.089Z,4.00
2023-02-19T15:21:31.704Z,2.90
2023-02-19T15:23:44.534Z,3.00
2023-02-19T15:25:58.333Z,2.40
2023-02-19T15:28:25.773Z,3.90
2023-02-19T15:30:38.308Z,3.50
2023-02-19T15:32:56.735Z,3.50
2023-02-19T15:35:19.932Z,3.20
2023-02-19T15:37:35.589Z,2.70
2023-02-19T15:39:49.690Z,2.80
2023-02-19T15:42:05.333Z,2.30
2023-02-19T15:44:44.823Z,2.80
2023-02-19T15:47:00.408Z,2.90
2023-02-19T15:49:22.072Z,3.10
2023-02-19T15:51:45.302Z,2.40
2023-02-19T15:54:04.265Z,1.80
2023-02-19T15:56:31.455Z,3.80
2023-02-19T15:58:50.253Z,4.40
2023-02-19T16:01:26.347Z,2.90
2023-02-19T16:03:39.433Z,2.50
2023-02-19T16:06:18.451Z,2.40
2023-02-19T16:08:36.617Z,1.80
2023-02-19T16:10:55.100Z,2.20
2023-02-19T16:13:08.310Z,2.20
2023-02-19T16:15:21.042Z,2.30
2023-02-19T16:17:34.181Z,2.30
2023-02-19T16:19:52.278Z,7.20
2023-02-19T16:22:04.887Z,15.80
2023-02-19T16:24:28.014Z,15.50
2023-02-19T16:26:41.551Z,16.20
2023-02-19T16:28:55.074Z,8.30
2023-02-19T16:31:11.212Z,5.80
2023-02-19T16:33:40.811Z,5.90
2023-02-19T16:35:53.387Z,7.20
2023-02-19T16:38:16.498Z,21.60
2023-02-19T16:40:34.843Z,13.40
2023-02-19T16:42:50.653Z,27.90
2023-02-19T16:45:03.265Z,5.90
2023-02-19T16:47:24.489Z,6.80
2023-02-19T16:49:37.172Z,2.30
2023-02-19T16:51:50.781Z,2.70
2023-02-19T16:54:04.520Z,3.50
2023-02-19T16:56:21.125Z,3.10
2023-02-19T16:58:33.823Z,2.90
2023-02-19T17:00:46.505Z,3.30
2023-02-19T17:03:08.766Z,3.40
2023-02-19T17:05:24.320Z,3.30
2023-02-19T17:07:36.843Z,3.20
2023-02-19T17:09:49.385Z,3.60
2023-02-19T17:12:02.201Z,3.90
2023-02-19T17:14:15.242Z,3.30
2023-02-19T17:16:40.630Z,2.90
2023-02-19T17:18:54.442Z,4.30
2023-02-19T17:21:29.666Z,2.60
2023-02-19T17:23:42.489Z,2.60
2023-02-19T17:25:55.264Z,2.20
2023-02-19T17:28:07.845Z,3.10
2023-02-19T17:30:29.010Z,2.80
2023-02-19T17:32:41.609Z,3.20
2023-02-19T17:34:54.206Z,3.20
2023-02-19T17:37:07.182Z,3.40
2023-02-19T17:39:19.927Z,3.10
2023-02-19T17:41:32.742Z,4.10
2023-02-19T17:43:45.790Z,5.20
2023-02-19T17:45:58.447Z,3.80
2023-02-19T17:48:14.769Z,8.80
2023-02-19T17:50:30.716Z,8.10
2023-02-19T17:52:43.305Z,15.50
2023-02-19T17:54:55.912Z,10.00
2023-02-19T17:57:08.433Z,7.80
2023-02-19T17:59:21.116Z,4.60
2023-02-19T18:01:33.819Z,3.00
2023-02-19T18:03:46.542Z,5.10
2023-02-19T18:05:59.288Z,2.90
2023-02-19T18:08:12.190Z,3.50
2023-02-19T18:10:25.508Z,3.40
2023-02-19T18:12:39.478Z,3.20
2023-02-19T18:14:54.581Z,3.50
2023-02-19T18:17:07.351Z,4.30
2023-02-19T18:19:20.266Z,5.80
2023-02-19T18:21:33.028Z,4.50
2023-02-19T18:23:46.931Z,4.20
2023-02-19T18:25:59.787Z,5.60
2023-02-19T18:28:12.440Z,5.40
2023-02-19T18:30:25.313Z,4.90
2023-02-19T18:32:38.143Z,4.60
2023-02-19T18:34:52.405Z,3.20
2023-02-19T18:37:05.495Z,3.90
2023-02-19T18:39:18.836Z,3.60
2023-02-19T18:41:31.534Z,2.90
2023-02-19T18:43:44.315Z,2.60
2023-02-19T18:45:56.918Z,2.90
2023-02-19T18:48:09.505Z,3.40
2023-02-19T18:50:22.094Z,2.80
2023-02-19T18:52:34.627Z,2.70
2023-02-19T18:54:49.050Z,2.80
2023-02-19T18:57:03.667Z,2.50
2023-02-19T18:59:16.532Z,3.00
2023-02-19T19:01:29.114Z,3.50
2023-02-19T19:03:41.903Z,2.70
2023-02-19T19:05:57.515Z,4.50
2023-02-19T19:08:10.057Z,6.10
2023-02-19T19:10:23.767Z,6.60
2023-02-19T19:12:36.291Z,4.40
2023-02-19T19:14:48.833Z,4.00
2023-02-19T19:17:01.393Z,4.50
2023-02-19T19:19:14.609Z,4.70
2023-02-19T19:21:27.242Z,4.10
2023-02-19T19:23:39.861Z,4.40
2023-02-19T19:25:54.536Z,9.10
2023-02-19T19:28:07.124Z,8.80
2023-02-19T19:30:20.535Z,5.00
2023-02-19T19:32:33.172Z,4.00
2023-02-19T19:34:45.814Z,4.30
2023-02-19T19:36:58.666Z,3.90
2023-02-19T19:39:11.906Z,4.70
2023-02-19T19:41:26.457Z,5.20
2023-02-19T19:43:40.077Z,4.30
2023-02-19T19:45:52.599Z,4.20
2023-02-19T19:48:06.250Z,3.90
2023-02-19T19:50:19.169Z,4.00
2023-02-19T19:52:31.715Z,4.30
2023-02-19T19:54:44.870Z,3.80
2023-02-19T19:56:57.636Z,3.50
2023-02-19T19:59:15.004Z,3.80
2023-02-19T20:01:27.586Z,3.70
2023-02-19T20:03:40.305Z,3.10
2023-02-19T20:05:53.044Z,3.90
2023-02-19T20:08:05.829Z,3.30
2023-02-19T20:10:20.124Z,3.20
2023-02-19T20:12:32.728Z,3.30
2023-02-19T20:14:46.870Z,3.80
2023-02-19T20:16:59.785Z,3.40
2023-02-19T20:19:12.341Z,3.20
2023-02-19T20:21:25.837Z,3.20
2023-02-19T20:23:39.735Z,4.90
2023-02-19T20:25:52.225Z,5.70
2023-02-19T20:28:05.035Z,5.10
2023-02-19T20:30:20.563Z,4.60
2023-02-19T20:32:33.283Z,4.70
2023-02-19T20:34:47.430Z,4.60
2023-02-19T20:37:00.017Z,22.90
2023-02-19T20:39:12.704Z,41.10
2023-02-19T20:41:25.253Z,40.50
2023-02-19T20:43:38.071Z,18.50
2023-02-19T20:45:50.593Z,8.20
2023-02-19T20:48:03.310Z,21.40
2023-02-19T20:50:17.518Z,40.40
2023-02-19T20:52:30.232Z,35.70
2023-02-19T20:54:44.251Z,40.70
2023-02-19T20:56:59.496Z,6.10
2023-02-19T20:59:13.838Z,5.00
2023-02-19T21:01:27.698Z,4.60
2023-02-19T21:03:40.586Z,5.40
2023-02-19T21:05:53.285Z,5.30
2023-02-19T21:08:05.834Z,5.00
2023-02-19T21:10:18.619Z,5.30
2023-02-19T21:12:31.610Z,5.30
2023-02-19T21:14:44.431Z,5.10
2023-02-19T21:16:57.121Z,4.70
2023-02-19T21:19:09.774Z,4.60
2023-02-19T21:21:27.113Z,4.40
2023-02-19T21:23:39.597Z,4.40
2023-02-19T21:25:54.528Z,4.70
2023-02-19T21:28:09.070Z,4.90
2023-02-19T21:30:21.826Z,4.90
2023-02-19T21:32:34.394Z,5.10
2023-02-19T21:34:47.017Z,5.40
2023-02-19T21:36:59.867Z,4.90
2023-02-19T21:39:15.757Z,4.70
2023-02-19T21:41:28.969Z,4.70
2023-02-19T21:43:41.550Z,4.80
2023-02-19T21:45:54.128Z,4.70
2023-02-19T21:48:08.048Z,4.60
2023-02-19T21:50:21.561Z,4.80
2023-02-19T21:52:34.193Z,4.40
2023-02-19T21:54:46.869Z,6.10
2023-02-19T21:57:02.788Z,5.50
2023-02-19T21:59:15.868Z,7.20
2023-02-19T22:01:32.564Z,6.50
2023-02-19T22:03:45.114Z,6.20
2023-02-19T22:06:01.268Z,5.40
2023-02-19T22:08:15.547Z,5.80
2023-02-19T22:10:28.157Z,5.60
2023-02-19T22:12:40.947Z,6.30
2023-02-19T22:14:53.830Z,6.50
2023-02-19T22:17:06.383Z,5.70
2023-02-19T22:19:18.952Z,5.50
2023-02-19T22:21:32.482Z,7.10
2023-02-19T22:23:50.115Z,5.30
2023-02-19T22:26:02.774Z,4.70
2023-02-19T22:28:15.634Z,4.40
2023-02-19T22:30:28.272Z,4.60
2023-02-19T22:32:41.376Z,4.30
2023-02-19T22:34:54.009Z,4.90
2023-02-19T22:37:06.742Z,4.40
2023-02-19T22:39:25.923Z,4.30
2023-02-19T22:41:42.125Z,4.10
2023-02-19T22:43:55.959Z,4.60
2023-02-19T22:46:17.305Z,4.20
2023-02-19T22:48:31.298Z,4.30
2023-02-19T22:50:43.862Z,4.20
2023-02-19T22:52:56.441Z,4.50
2023-02-19T22:55:08.970Z,3.40
2023-02-19T22:57:21.670Z,4.30
2023-02-19T22:59:34.350Z,4.20
2023-02-19T23:01:47.500Z,4.20
2023-02-19T23:04:01.269Z,3.90
2023-02-19T23:06:14.772Z,3.90
2023-02-19T23:08:27.419Z,4.00
2023-02-19T23:10:40.944Z,4.20
2023-02-19T23:12:53.518Z,4.00
2023-02-19T23:15:07.430Z,4.00
2023-02-19T23:17:20.176Z,3.90
2023-02-19T23:19:32.741Z,3.70
2023-02-19T23:21:47.065Z,3.60
2023-02-19T23:23:59.786Z,4.10
2023-02-19T23:26:13.984Z,3.90
2023-02-19T23:28:26.753Z,4.10
2023-02-19T23:30:39.356Z,3.90
2023-02-19T23:32:51.908Z,3.50
2023-02-19T23:35:04.644Z,3.90
2023-02-19T23:37:17.646Z,4.00
2023-02-19T23:39:30.209Z,4.30
2023-02-19T23:41:47.922Z,4.20
2023-02-19T23:44:00.491Z,4.90
2023-02-19T23:46:17.333Z,4.80
2023-02-19T23:48:30.303Z,4.80
2023-02-19T23:50:42.850Z,5.20
2023-02-19T23:52:56.812Z,5.70
2023-02-19T23:55:09.424Z,5.40
2023-02-19T23:57:21.924Z,5.40
2023-02-19T23:59:34.428Z,5.10
